Time;durP1;ratioP1;P1;durP2;ratioP2;P2;SDS_P1;SDS_P2;PMS_P1;PMS_P2;Temp;Humidity;BMP_temperature;BMP_pressure;BME280_temperature;BME280_humidity;BME280_pressure;Samples;Min_cycle;Max_cycle;Signal;HPM_P1;HPM_P2
2023/09/21 00:01:05;;;;;;;5.35;1.60;;;21.70;99.20;;;;;;5033280;28;20474;-71
2023/09/21 00:03:32;;;;;;;2.78;1.50;;;21.70;99.10;;;;;;5033252;28;20517;-71
2023/09/21 00:05:58;;;;;;;2.42;1.20;;;21.70;99.10;;;;;;5033079;28;20055;-71
2023/09/21 00:08:24;;;;;;;4.97;1.65;;;21.70;99.10;;;;;;5032934;28;20418;-72
2023/09/21 00:10:50;;;;;;;3.30;1.30;;;21.70;99.20;;;;;;5033510;28;20056;-72
2023/09/21 00:13:20;;;;;;;6.60;1.58;;;21.70;99.20;;;;;;5033012;28;20360;-73
2023/09/21 00:15:47;;;;;;;5.15;1.52;;;21.70;99.20;;;;;;5013662;28;20536;-71
2023/09/21 00:18:13;;;;;;;3.20;1.48;;;21.70;99.20;;;;;;5013398;28;20495;-71
2023/09/21 00:20:43;;;;;;;3.88;1.73;;;21.70;99.20;;;;;;5013293;28;20026;-72
2023/09/21 00:23:13;;;;;;;3.50;1.48;;;21.70;99.20;;;;;;5011954;28;20025;-71
2023/09/21 00:25:38;;;;;;;4.45;1.70;;;21.70;99.20;;;;;;5013541;28;20025;-78
2023/09/21 00:28:14;;;;;;;3.75;1.60;;;21.70;99.10;;;;;;5011967;28;20042;-71
2023/09/21 00:30:43;;;;;;;5.25;1.60;;;21.70;99.20;;;;;;5013200;28;20479;-72
2023/09/21 00:33:09;;;;;;;6.05;1.70;;;21.70;99.20;;;;;;5013474;28;20104;-71
2023/09/21 00:35:42;;;;;;;3.65;1.38;;;21.70;99.20;;;;;;5013184;28;20109;-76
2023/09/21 00:38:14;;;;;;;3.67;1.60;;;21.70;99.20;;;;;;5013274;28;20072;-70
2023/09/21 00:40:40;;;;;;;3.20;1.60;;;21.70;99.20;;;;;;5011925;28;20442;-73
2023/09/21 00:43:12;;;;;;;3.03;1.58;;;21.70;99.10;;;;;;5013206;28;20029;-71
2023/09/21 00:45:44;;;;;;;4.38;1.67;;;21.70;99.20;;;;;;5013189;28;20042;-71
2023/09/21 00:48:11;;;;;;;5.45;1.50;;;21.70;99.30;;;;;;5011611;28;20040;-73
2023/09/21 00:50:38;;;;;;;1.80;1.20;;;21.70;99.20;;;;;;5013089;28;20445;-71
2023/09/21 00:53:05;;;;;;;3.97;1.50;;;21.70;99.20;;;;;;5013005;28;20037;-70
2023/09/21 00:55:33;;;;;;;2.58;1.38;;;21.70;99.20;;;;;;5025774;28;20026;-76
2023/09/21 00:58:03;;;;;;;2.00;1.48;;;21.70;99.20;;;;;;5036939;28;20048;-71
2023/09/21 01:00:30;;;;;;;2.88;1.58;;;21.70;99.10;;;;;;5036919;28;20585;-72
2023/09/21 01:03:07;;;;;;;3.17;1.40;;;21.70;99.10;;;;;;5036391;28;20025;-70
2023/09/21 01:05:39;;;;;;;2.53;1.20;;;21.70;99.20;;;;;;5028153;28;20040;-71
2023/09/21 01:08:11;;;;;;;4.38;1.58;;;21.70;99.10;;;;;;4997117;28;20060;-70
2023/09/21 01:10:49;;;;;;;3.15;1.63;;;21.60;98.90;;;;;;4997093;28;20022;-71
2023/09/21 01:13:18;;;;;;;3.40;1.48;;;21.70;99.00;;;;;;4997240;28;20101;-70
2023/09/21 01:16:04;;;;;;;2.53;1.45;;;21.70;98.90;;;;;;5021390;28;20068;-71
2023/09/21 01:18:31;;;;;;;2.67;1.67;;;21.70;98.90;;;;;;5015100;28;20046;-72
2023/09/21 01:21:04;;;;;;;3.80;1.52;;;21.70;99.00;;;;;;5016615;28;20030;-71
2023/09/21 01:23:43;;;;;;;3.60;1.42;;;21.70;99.00;;;;;;5016461;28;20024;-71
2023/09/21 01:26:10;;;;;;;7.38;1.73;;;21.70;98.80;;;;;;5035618;28;20036;-71
2023/09/21 01:28:37;;;;;;;2.78;1.30;;;21.70;98.90;;;;;;5034973;28;20024;-71
2023/09/21 01:31:03;;;;;;;2.50;1.20;;;21.60;98.90;;;;;;5035902;28;20474;-70
2023/09/21 01:33:28;;;;;;;3.67;1.48;;;21.70;98.80;;;;;;5036037;28;20040;-70
2023/09/21 01:35:54;;;;;;;3.35;1.52;;;21.60;99.00;;;;;;5036252;28;20022;-71
2023/09/21 01:38:20;;;;;;;3.55;1.50;;;21.70;98.90;;;;;;5036060;28;20029;-75
2023/09/21 01:40:46;;;;;;;2.60;1.40;;;21.60;98.90;;;;;;5035561;28;20482;-71
2023/09/21 01:43:16;;;;;;;2.13;1.40;;;21.70;99.00;;;;;;5034771;28;20017;-72
2023/09/21 01:45:48;;;;;;;2.60;1.27;;;21.70;98.80;;;;;;5035954;28;20372;-71
2023/09/21 01:48:15;;;;;;;2.67;1.20;;;21.60;98.90;;;;;;5035533;28;20044;-73
2023/09/21 01:50:45;;;;;;;4.05;1.20;;;21.60;98.90;;;;;;5023984;28;20037;-79
2023/09/21 01:53:11;;;;;;;3.47;1.50;;;21.60;99.00;;;;;;5015972;28;20057;-72
2023/09/21 01:55:40;;;;;;;3.53;1.30;;;21.60;98.90;;;;;;5015857;28;20045;-71
2023/09/21 01:58:08;;;;;;;3.25;1.65;;;21.60;98.90;;;;;;5016120;28;20036;-72
2023/09/21 02:00:39;;;;;;;3.60;1.80;;;21.60;98.90;;;;;;5016523;28;20096;-72
2023/09/21 02:03:09;;;;;;;3.15;2.25;;;21.60;99.00;;;;;;5035085;28;20017;-71
2023/09/21 02:05:39;;;;;;;3.03;1.55;;;21.60;98.90;;;;;;5035458;28;20025;-71
2023/09/21 02:08:05;;;;;;;4.43;1.50;;;21.60;98.90;;;;;;5034569;28;20406;-73
2023/09/21 02:10:32;;;;;;;4.35;1.88;;;21.60;98.80;;;;;;5034786;28;20051;-75
2023/09/21 02:13:00;;;;;;;2.63;1.55;;;21.50;98.90;;;;;;5018484;28;20121;-71
2023/09/21 02:15:26;;;;;;;5.80;1.40;;;21.60;98.90;;;;;;5014974;28;20014;-71
2023/09/21 02:17:55;;;;;;;3.47;1.52;;;21.60;98.90;;;;;;5015419;28;20041;-71
2023/09/21 02:20:22;;;;;;;10.57;1.65;;;21.60;98.90;;;;;;5024115;28;20034;-75
2023/09/21 02:22:49;;;;;;;2.92;1.48;;;21.60;98.90;;;;;;5035219;28;20079;-73
2023/09/21 02:25:16;;;;;;;2.88;1.50;;;21.60;98.90;;;;;;5035057;28;20039;-77
2023/09/21 02:27:45;;;;;;;4.13;1.63;;;21.60;99.00;;;;;;5034037;28;20301;-70
2023/09/21 02:30:14;;;;;;;3.03;1.58;;;21.60;99.00;;;;;;5015050;28;20030;-71
2023/09/21 02:32:44;;;;;;;4.78;1.85;;;21.60;99.30;;;;;;5015486;28;20021;-70
2023/09/21 02:35:16;;;;;;;2.33;1.35;;;21.60;99.00;;;;;;5015153;28;20026;-79
2023/09/21 02:37:49;;;;;;;3.20;1.65;;;21.60;99.00;;;;;;5015262;28;20034;-73
2023/09/21 02:40:17;;;;;;;2.40;1.20;;;21.50;99.00;;;;;;5014894;28;20109;-70
2023/09/21 02:42:44;;;;;;;3.55;1.60;;;21.60;99.00;;;;;;5015147;28;20483;-70
2023/09/21 02:45:13;;;;;;;4.38;1.30;;;21.60;98.90;;;;;;5014654;28;20032;-70
2023/09/21 02:47:41;;;;;;;7.10;1.70;;;21.50;99.00;;;;;;5014981;28;20038;-71
2023/09/21 02:50:14;;;;;;;2.83;1.40;;;21.50;98.90;;;;;;5018237;28;20536;-71
2023/09/21 02:53:08;;;;;;;3.10;1.50;;;21.60;99.10;;;;;;5034609;28;20356;-70
2023/09/21 02:55:35;;;;;;;2.03;1.33;;;21.50;99.10;;;;;;5032613;28;20061;-71
2023/09/21 02:58:05;;;;;;;4.55;1.63;;;21.50;99.20;;;;;;5034591;28;20033;-71
2023/09/21 03:00:35;;;;;;;2.80;1.38;;;21.50;99.20;;;;;;5033718;28;20403;-70
2023/09/21 03:03:02;;;;;;;4.35;1.58;;;21.50;99.40;;;;;;5034740;28;20017;-71
2023/09/21 03:05:28;;;;;;;4.07;1.52;;;21.50;99.50;;;;;;5034415;28;20039;-70
2023/09/21 03:07:55;;;;;;;3.42;1.50;;;21.50;99.60;;;;;;5034278;28;20125;-70
2023/09/21 03:10:21;;;;;;;1.73;1.50;;;21.50;99.70;;;;;;5034280;28;20114;-70
2023/09/21 03:12:51;;;;;;;2.85;1.40;;;21.50;99.70;;;;;;5034012;28;20035;-70
2023/09/21 03:15:20;;;;;;;3.65;1.33;;;21.50;99.80;;;;;;5034280;28;20024;-70
2023/09/21 03:17:47;;;;;;;2.72;1.58;;;21.50;99.90;;;;;;5034106;28;20029;-70
2023/09/21 03:20:36;;;;;;;4.65;1.73;;;21.50;99.90;;;;;;5034150;28;20030;-70
2023/09/21 03:23:05;;;;;;;3.65;1.70;;;21.50;99.90;;;;;;5022122;28;20361;-76
2023/09/21 03:25:41;;;;;;;3.17;1.60;;;21.50;99.90;;;;;;5014499;28;20014;-71
2023/09/21 03:28:15;;;;;;;3.15;1.60;;;21.50;99.90;;;;;;5013852;28;20033;-70
2023/09/21 03:30:42;;;;;;;2.80;1.50;;;21.50;99.90;;;;;;5014359;28;20022;-71
2023/09/21 03:33:09;;;;;;;2.33;1.58;;;21.50;99.90;;;;;;5014054;28;20026;-70
2023/09/21 03:35:35;;;;;;;2.40;1.80;;;21.40;99.90;;;;;;5013983;28;20029;-71
2023/09/21 03:38:01;;;;;;;3.65;1.60;;;21.40;99.90;;;;;;5013934;28;20057;-72
2023/09/21 03:40:26;;;;;;;4.65;2.08;;;21.40;99.90;;;;;;5014220;28;20077;-78
2023/09/21 03:42:55;;;;;;;4.20;1.77;;;21.30;99.90;;;;;;5013823;28;20046;-71
2023/09/21 03:45:24;;;;;;;5.57;2.05;;;21.30;99.90;;;;;;5014053;28;20036;-70
2023/09/21 03:47:51;;;;;;;3.15;1.60;;;21.30;99.90;;;;;;5013850;28;20068;-71
2023/09/21 03:50:17;;;;;;;3.55;1.90;;;21.30;99.90;;;;;;5013885;28;20481;-70
2023/09/21 03:52:44;;;;;;;3.90;2.25;;;21.30;99.90;;;;;;5028776;28;20033;-70
2023/09/21 03:55:15;;;;;;;4.90;1.92;;;21.30;99.90;;;;;;5033566;28;20021;-72
2023/09/21 03:57:47;;;;;;;4.90;2.17;;;21.20;99.90;;;;;;5033148;28;20083;-70
2023/09/21 04:03:03;;;;;;;4.20;2.05;;;21.20;99.90;;;;;;5033368;28;20459;-70
2023/09/21 04:05:31;;;;;;;4.43;2.05;;;21.10;99.90;;;;;;5033368;28;20109;-70
2023/09/21 04:07:57;;;;;;;2.58;1.80;;;21.10;99.90;;;;;;5033223;28;20029;-70
2023/09/21 04:10:23;;;;;;;4.88;2.38;;;21.00;99.90;;;;;;5019826;28;20034;-70
2023/09/21 04:12:50;;;;;;;3.25;2.10;;;21.10;99.90;;;;;;5013311;28;20077;-70
2023/09/21 04:15:16;;;;;;;4.97;2.10;;;21.00;99.90;;;;;;5017006;28;20503;-71
2023/09/21 04:17:42;;;;;;;4.60;2.55;;;21.10;99.90;;;;;;5033228;28;20033;-70
2023/09/21 04:20:11;;;;;;;2.60;1.92;;;21.00;99.90;;;;;;5032958;28;20033;-71
2023/09/21 04:22:39;;;;;;;3.08;2.00;;;21.00;99.90;;;;;;5033254;28;20029;-71
2023/09/21 04:25:09;;;;;;;3.75;2.22;;;21.00;99.90;;;;;;5033160;28;20020;-71
2023/09/21 04:27:39;;;;;;;3.13;1.90;;;21.00;99.90;;;;;;5032643;28;20041;-70
2023/09/21 04:30:08;;;;;;;2.83;1.63;;;21.10;99.90;;;;;;5027528;28;20033;-70
2023/09/21 04:32:38;;;;;;;6.13;2.25;;;21.00;99.90;;;;;;5018017;28;20087;-71
2023/09/21 04:35:05;;;;;;;3.50;2.00;;;21.00;99.90;;;;;;5013352;28;20025;-70
2023/09/21 04:37:35;;;;;;;5.43;1.90;;;21.10;99.90;;;;;;5013160;28;20037;-70
2023/09/21 04:40:11;;;;;;;3.08;1.70;;;21.10;99.90;;;;;;5013424;28;20018;-70
2023/09/21 04:42:41;;;;;;;2.92;1.63;;;21.10;99.90;;;;;;5013087;28;20025;-70
2023/09/21 04:45:11;;;;;;;5.88;1.88;;;21.10;99.90;;;;;;5014390;28;20049;-70
2023/09/21 04:47:41;;;;;;;3.88;1.90;;;21.10;99.90;;;;;;5033085;28;20088;-70
2023/09/21 04:50:10;;;;;;;3.53;2.00;;;21.20;99.90;;;;;;5032969;28;20085;-70
2023/09/21 04:52:36;;;;;;;3.42;1.50;;;21.20;99.90;;;;;;5032952;28;20029;-70
2023/09/21 04:55:05;;;;;;;2.92;1.75;;;21.20;99.90;;;;;;5032487;28;20075;-70
2023/09/21 04:57:31;;;;;;;3.10;1.75;;;21.20;99.90;;;;;;5032866;28;20041;-70
2023/09/21 04:59:58;;;;;;;4.15;1.70;;;21.20;99.90;;;;;;5032645;28;20022;-70
2023/09/21 05:02:24;;;;;;;3.97;1.73;;;21.20;99.90;;;;;;5032287;28;20030;-70
2023/09/21 05:04:52;;;;;;;4.30;2.00;;;21.20;99.90;;;;;;5031643;28;20386;-70
2023/09/21 05:07:18;;;;;;;3.70;2.13;;;21.20;99.90;;;;;;5031927;28;20108;-70
2023/09/21 05:09:45;;;;;;;2.22;1.70;;;21.20;99.90;;;;;;5032461;28;20032;-70
2023/09/21 05:12:14;;;;;;;3.80;2.00;;;21.20;99.90;;;;;;5017582;28;20113;-70
2023/09/21 05:14:40;;;;;;;3.20;2.03;;;21.20;99.90;;;;;;5013099;28;20022;-70
2023/09/21 05:17:06;;;;;;;3.95;1.90;;;21.20;99.90;;;;;;5013005;28;20026;-71
2023/09/21 05:19:33;;;;;;;5.20;1.52;;;21.10;99.90;;;;;;5012901;28;20018;-70
2023/09/21 05:21:59;;;;;;;3.70;1.63;;;21.20;99.90;;;;;;5012871;28;20030;-71
2023/09/21 05:24:25;;;;;;;3.00;1.80;;;21.10;99.90;;;;;;5009421;28;20022;-70
2023/09/21 05:26:52;;;;;;;3.00;1.90;;;21.10;99.90;;;;;;5010563;28;20061;-69
2023/09/21 05:29:22;;;;;;;3.33;1.38;;;21.10;99.90;;;;;;5009638;28;20028;-70
2023/09/21 05:31:51;;;;;;;2.97;1.40;;;21.00;99.90;;;;;;5020736;28;20068;-70
2023/09/21 05:34:17;;;;;;;2.45;1.00;;;21.10;99.90;;;;;;5032325;28;20100;-71
2023/09/21 05:36:46;;;;;;;2.72;0.85;;;21.00;99.90;;;;;;5029325;28;20077;-72
2023/09/21 05:39:19;;;;;;;1.90;0.80;;;21.00;99.90;;;;;;5007738;28;20061;-70
2023/09/21 05:41:47;;;;;;;2.97;1.00;;;21.00;99.90;;;;;;5011892;28;20375;-70
2023/09/21 05:44:13;;;;;;;1.40;0.70;;;20.90;99.90;;;;;;5030718;28;20083;-73
2023/09/21 05:46:39;;;;;;;1.45;0.70;;;20.90;99.90;;;;;;5013606;28;20415;-70
2023/09/21 05:49:09;;;;;;;2.50;0.55;;;20.80;99.90;;;;;;5026237;28;20026;-70
2023/09/21 05:51:39;;;;;;;1.83;0.70;;;20.80;99.90;;;;;;5004667;28;20023;-69
2023/09/21 05:54:05;;;;;;;3.00;1.27;;;20.80;99.90;;;;;;5006651;28;20053;-70
2023/09/21 05:56:32;;;;;;;2.05;0.50;;;20.90;99.90;;;;;;5010098;28;20026;-68
2023/09/21 05:58:59;;;;;;;3.15;0.80;;;20.90;99.90;;;;;;5006722;28;20037;-68
2023/09/21 06:01:26;;;;;;;2.97;0.90;;;20.80;99.90;;;;;;5001711;28;20023;-68
2023/09/21 06:03:52;;;;;;;2.50;0.98;;;20.80;99.90;;;;;;5008628;28;20087;-68
2023/09/21 06:06:19;;;;;;;3.45;0.82;;;20.80;99.90;;;;;;5007639;28;20496;-69
2023/09/21 06:08:45;;;;;;;2.25;0.70;;;20.70;99.90;;;;;;5015494;28;20056;-66
2023/09/21 06:11:11;;;;;;;1.52;0.50;;;20.70;99.90;;;;;;5016641;28;20033;-67
2023/09/21 06:13:37;;;;;;;4.13;0.55;;;20.70;99.90;;;;;;5016186;28;20098;-69
2023/09/21 06:16:03;;;;;;;1.77;0.65;;;20.70;99.90;;;;;;5015561;28;20026;-67
2023/09/21 06:18:29;;;;;;;1.88;0.88;;;20.60;99.90;;;;;;5014198;28;20041;-67
2023/09/21 06:20:56;;;;;;;2.13;0.82;;;20.60;99.90;;;;;;5006366;28;20030;-66
2023/09/21 06:23:22;;;;;;;2.28;0.70;;;20.50;99.90;;;;;;5009071;28;20030;-68
2023/09/21 06:25:48;;;;;;;5.50;0.90;;;20.60;99.90;;;;;;5026007;28;20027;-67
2023/09/21 06:28:15;;;;;;;3.05;0.95;;;20.60;99.90;;;;;;5013068;28;20045;-75
2023/09/21 06:30:41;;;;;;;3.60;1.38;;;20.60;99.90;;;;;;5015816;28;20030;-65
2023/09/21 06:33:07;;;;;;;4.03;1.70;;;20.50;99.90;;;;;;5010323;28;20039;-64
2023/09/21 06:35:33;;;;;;;3.83;1.60;;;20.50;99.90;;;;;;5022160;28;20029;-73
2023/09/21 06:37:59;;;;;;;4.93;1.83;;;20.50;99.90;;;;;;5010774;28;20077;-65
2023/09/21 06:40:25;;;;;;;6.25;2.78;;;20.50;99.90;;;;;;5011198;28;20051;-65
2023/09/21 06:42:51;;;;;;;6.43;2.85;;;20.50;99.90;;;;;;5008137;28;20753;-64
2023/09/21 06:45:18;;;;;;;3.67;2.60;;;20.40;99.90;;;;;;5007314;28;20029;-65
2023/09/21 06:47:47;;;;;;;3.58;2.20;;;20.50;99.90;;;;;;5006439;28;20125;-64
2023/09/21 06:50:14;;;;;;;5.25;2.50;;;20.50;99.90;;;;;;5014859;28;20379;-65
2023/09/21 06:52:40;;;;;;;6.55;2.70;;;20.40;99.90;;;;;;5008418;28;20030;-65
2023/09/21 06:55:07;;;;;;;7.60;2.75;;;20.40;99.90;;;;;;5006495;28;20027;-65
2023/09/21 06:57:34;;;;;;;5.30;2.85;;;20.40;99.90;;;;;;5013251;28;20049;-66
2023/09/21 07:00:00;;;;;;;3.65;2.58;;;20.40;99.90;;;;;;5015522;28;20022;-65
2023/09/21 07:02:26;;;;;;;5.10;1.88;;;20.40;99.90;;;;;;5034615;28;20033;-66
2023/09/21 07:04:52;;;;;;;5.35;2.15;;;20.40;99.90;;;;;;5034087;28;20449;-64
2023/09/21 07:07:18;;;;;;;3.78;1.65;;;20.40;99.90;;;;;;5011358;28;20590;-64
2023/09/21 07:09:47;;;;;;;9.10;1.80;;;20.30;99.90;;;;;;4995390;28;20031;-66
2023/09/21 07:12:14;;;;;;;5.28;1.80;;;20.30;99.90;;;;;;4997854;28;20073;-67
2023/09/21 07:14:40;;;;;;;4.75;1.75;;;20.30;99.90;;;;;;5014657;28;20037;-70
2023/09/21 07:17:06;;;;;;;5.53;1.90;;;20.20;99.90;;;;;;5014371;28;20068;-66
2023/09/21 07:19:34;;;;;;;4.20;1.60;;;20.20;99.90;;;;;;5014704;28;20026;-66
2023/09/21 07:22:01;;;;;;;5.45;1.90;;;20.30;99.90;;;;;;5014377;28;20026;-67
2023/09/21 07:24:28;;;;;;;5.45;2.17;;;20.20;99.90;;;;;;5002267;28;20101;-66
2023/09/21 07:26:54;;;;;;;5.93;2.72;;;20.20;99.90;;;;;;4994980;28;20034;-66
2023/09/21 07:29:20;;;;;;;7.38;3.25;;;20.20;99.90;;;;;;4994892;28;20172;-73
2023/09/21 07:31:45;;;;;;;6.60;2.80;;;20.30;99.90;;;;;;5000267;28;20128;-66
2023/09/21 07:34:11;;;;;;;6.78;2.78;;;20.30;99.90;;;;;;5009344;28;20490;-66
2023/09/21 07:36:38;;;;;;;5.90;2.70;;;20.30;99.90;;;;;;5007755;28;20112;-65
2023/09/21 07:39:09;;;;;;;6.60;2.38;;;20.20;99.90;;;;;;5016425;28;20022;-68
2023/09/21 07:41:34;;;;;;;3.63;2.20;;;20.20;99.90;;;;;;5012857;28;20037;-67
2023/09/21 07:44:00;;;;;;;3.40;1.98;;;20.20;99.90;;;;;;4993898;28;20038;-65
2023/09/21 07:46:26;;;;;;;3.40;2.10;;;20.20;99.90;;;;;;4997017;28;20471;-73
2023/09/21 07:48:52;;;;;;;4.50;2.05;;;20.30;99.90;;;;;;5011404;28;20391;-66
2023/09/21 07:51:19;;;;;;;5.20;1.90;;;20.20;99.90;;;;;;5012230;28;20460;-67
2023/09/21 07:53:45;;;;;;;5.65;2.78;;;20.30;99.90;;;;;;4993824;28;20025;-66
2023/09/21 07:56:12;;;;;;;4.60;2.55;;;20.20;99.90;;;;;;4996479;28;20101;-67
2023/09/21 07:58:38;;;;;;;6.25;2.88;;;20.30;99.90;;;;;;4994167;28;20460;-67
2023/09/21 08:01:04;;;;;;;4.80;2.15;;;20.20;99.90;;;;;;5002590;28;20511;-66
2023/09/21 08:03:31;;;;;;;4.15;2.15;;;20.20;99.90;;;;;;5007906;28;20077;-66
2023/09/21 08:05:59;;;;;;;5.10;2.47;;;20.20;99.90;;;;;;4993521;28;20074;-66
2023/09/21 08:08:25;;;;;;;5.25;2.17;;;20.10;99.90;;;;;;4998628;28;20146;-67
2023/09/21 08:10:52;;;;;;;5.57;2.33;;;20.20;99.90;;;;;;4993648;28;20034;-66
2023/09/21 08:13:20;;;;;;;3.88;1.83;;;20.20;99.90;;;;;;4994796;28;20077;-67
2023/09/21 08:15:46;;;;;;;4.22;1.73;;;20.20;99.90;;;;;;4993709;28;20045;-67
2023/09/21 08:18:12;;;;;;;3.83;1.90;;;20.20;99.90;;;;;;4993003;28;20562;-67
2023/09/21 08:20:41;;;;;;;2.83;1.55;;;20.20;99.90;;;;;;5014854;28;20024;-67
2023/09/21 08:23:07;;;;;;;3.25;1.27;;;20.00;99.90;;;;;;5015334;28;20092;-67
2023/09/21 08:25:34;;;;;;;6.97;1.48;;;20.10;99.90;;;;;;5016645;28;20049;-67
2023/09/21 08:28:00;;;;;;;4.80;1.13;;;20.10;99.90;;;;;;5031738;28;20416;-67
2023/09/21 08:30:26;;;;;;;3.10;1.38;;;20.10;99.90;;;;;;5033038;28;20017;-67
2023/09/21 08:32:52;;;;;;;2.78;1.08;;;20.10;99.90;;;;;;5032790;28;20043;-68
2023/09/21 08:35:17;;;;;;;3.85;1.50;;;20.20;99.90;;;;;;5032882;28;20108;-69
2023/09/21 08:37:43;;;;;;;2.63;1.30;;;20.10;99.90;;;;;;5029478;28;20105;-67
2023/09/21 08:40:09;;;;;;;5.28;1.42;;;20.10;99.90;;;;;;5013112;28;20053;-66
2023/09/21 08:42:36;;;;;;;2.58;1.33;;;20.10;99.90;;;;;;5013012;28;20029;-67
2023/09/21 08:45:08;;;;;;;2.55;1.58;;;20.00;99.90;;;;;;5012852;28;20105;-67
2023/09/21 08:47:33;;;;;;;4.95;1.60;;;20.00;99.90;;;;;;5013000;28;20038;-67
2023/09/21 08:50:02;;;;;;;4.47;1.60;;;20.10;99.90;;;;;;5012959;28;20052;-67
2023/09/21 08:52:32;;;;;;;3.08;1.60;;;20.10;99.90;;;;;;5013199;28;20021;-67
2023/09/21 08:54:58;;;;;;;3.47;1.20;;;20.10;99.90;;;;;;5013168;28;20097;-67
2023/09/21 08:57:24;;;;;;;3.92;1.50;;;20.10;99.90;;;;;;5013043;28;20104;-67
2023/09/21 08:59:54;;;;;;;2.83;1.27;;;20.10;99.90;;;;;;5013038;28;20376;-73
2023/09/21 09:02:19;;;;;;;2.35;1.13;;;20.00;99.90;;;;;;5012899;28;20026;-67
2023/09/21 09:04:45;;;;;;;3.08;1.52;;;20.00;99.90;;;;;;5012801;28;20045;-67
2023/09/21 09:07:12;;;;;;;1.52;0.95;;;20.00;99.90;;;;;;5012743;28;20435;-67
2023/09/21 09:09:39;;;;;;;2.13;0.82;;;20.10;99.90;;;;;;5012925;28;20022;-68
2023/09/21 09:12:21;;;;;;;1.95;0.98;;;20.00;99.90;;;;;;5013084;28;20029;-67
2023/09/21 09:14:46;;;;;;;2.70;0.90;;;20.10;99.90;;;;;;5012708;28;20371;-67
2023/09/21 09:17:14;;;;;;;1.77;0.77;;;20.00;99.90;;;;;;5006927;28;20506;-67
2023/09/21 09:19:40;;;;;;;1.75;0.90;;;20.00;99.90;;;;;;5004314;28;20426;-66
2023/09/21 09:22:06;;;;;;;3.63;1.40;;;20.00;99.90;;;;;;5000432;28;20534;-67
2023/09/21 09:24:33;;;;;;;2.42;1.13;;;20.10;99.90;;;;;;5003752;28;20037;-67
2023/09/21 09:26:59;;;;;;;3.78;1.67;;;20.00;99.90;;;;;;4994930;28;20439;-67
2023/09/21 09:29:26;;;;;;;1.50;0.75;;;20.00;99.90;;;;;;5007285;28;20022;-68
2023/09/21 09:31:52;;;;;;;1.50;0.68;;;20.00;99.90;;;;;;5010734;28;20130;-67
2023/09/21 09:34:18;;;;;;;2.25;0.90;;;20.00;99.90;;;;;;4995760;28;20460;-67
2023/09/21 09:36:55;;;;;;;1.58;0.57;;;20.00;99.90;;;;;;4996721;28;20444;-71
2023/09/21 09:39:23;;;;;;;2.33;0.60;;;20.00;99.90;;;;;;4994149;28;20018;-67
2023/09/21 09:41:50;;;;;;;1.92;0.60;;;20.00;99.90;;;;;;4996072;28;20460;-67
2023/09/21 09:44:24;;;;;;;2.75;0.70;;;20.00;99.90;;;;;;4996761;28;20014;-67
2023/09/21 09:46:57;;;;;;;1.40;0.80;;;20.10;99.90;;;;;;4996358;28;20496;-67
2023/09/21 09:49:26;;;;;;;4.00;0.80;;;20.10;99.90;;;;;;5011374;28;20030;-67
2023/09/21 09:51:55;;;;;;;1.80;0.82;;;20.00;99.90;;;;;;5013138;28;20033;-67
2023/09/21 09:54:24;;;;;;;1.25;0.70;;;19.90;99.90;;;;;;4996082;28;20109;-67
2023/09/21 09:56:52;;;;;;;2.35;1.00;;;19.80;99.90;;;;;;4995798;28;20027;-67
2023/09/21 09:59:21;;;;;;;4.00;1.42;;;19.90;99.90;;;;;;4998701;28;20026;-68
2023/09/21 10:01:49;;;;;;;3.67;1.20;;;19.90;99.90;;;;;;4999671;28;20022;-67
2023/09/21 10:04:15;;;;;;;3.92;1.80;;;19.80;99.90;;;;;;5012835;28;20036;-63
2023/09/21 10:06:42;;;;;;;2.78;1.63;;;19.80;99.90;;;;;;5010783;28;20029;-65
2023/09/21 10:09:13;;;;;;;2.47;1.40;;;19.80;99.90;;;;;;5008895;28;20018;-66
2023/09/21 10:11:46;;;;;;;5.50;1.90;;;19.80;99.90;;;;;;5013319;28;20033;-79
2023/09/21 10:14:17;;;;;;;4.03;1.55;;;19.80;99.90;;;;;;5014767;28;20026;-67
2023/09/21 10:16:53;;;;;;;2.47;1.33;;;19.80;99.90;;;;;;5012597;28;20060;-65
2023/09/21 10:19:28;;;;;;;3.42;1.45;;;19.80;99.90;;;;;;5010227;28;20030;-75
2023/09/21 10:21:57;;;;;;;2.28;1.50;;;19.70;99.90;;;;;;5014469;28;20510;-68
2023/09/21 10:24:26;;;;;;;3.63;1.65;;;19.60;99.90;;;;;;5015414;28;20029;-67
2023/09/21 10:26:53;;;;;;;3.20;1.63;;;19.50;99.90;;;;;;5015326;28;20034;-67
2023/09/21 10:29:21;;;;;;;2.70;1.52;;;19.60;99.90;;;;;;5014293;28;20479;-73
2023/09/21 10:31:57;;;;;;;3.22;1.45;;;19.50;99.90;;;;;;5015254;28;20069;-73
2023/09/21 10:34:26;;;;;;;2.40;1.48;;;19.60;99.90;;;;;;5015208;28;20026;-67
2023/09/21 10:37:00;;;;;;;2.60;1.67;;;19.60;99.90;;;;;;5010727;28;20038;-67
2023/09/21 10:39:28;;;;;;;2.92;1.50;;;19.60;99.90;;;;;;4995846;28;20022;-67
2023/09/21 10:42:16;;;;;;;4.35;1.98;;;19.60;99.90;;;;;;4999350;28;20018;-67
2023/09/21 10:45:02;;;;;;;2.30;1.23;;;19.60;99.90;;;;;;5014718;28;20026;-67
2023/09/21 10:47:36;;;;;;;3.28;1.17;;;19.60;99.90;;;;;;5014890;28;20030;-67
2023/09/21 10:50:21;;;;;;;4.90;1.73;;;19.50;99.90;;;;;;5014828;28;20030;-67
2023/09/21 10:52:51;;;;;;;2.95;1.27;;;19.50;99.90;;;;;;5014902;28;20025;-74
2023/09/21 10:55:18;;;;;;;1.77;1.35;;;19.50;99.90;;;;;;5013632;28;20418;-68
2023/09/21 10:57:46;;;;;;;4.45;1.50;;;19.50;99.90;;;;;;5014469;28;20021;-66
2023/09/21 11:00:18;;;;;;;2.58;1.30;;;19.50;99.90;;;;;;5014906;28;20044;-68
2023/09/21 11:02:50;;;;;;;2.35;1.23;;;19.50;99.90;;;;;;5014499;28;20463;-66
2023/09/21 11:05:17;;;;;;;5.25;1.33;;;19.50;99.90;;;;;;5014121;28;20440;-66
2023/09/21 11:07:45;;;;;;;2.78;1.10;;;19.40;99.90;;;;;;5013729;28;20033;-67
2023/09/21 11:10:11;;;;;;;3.13;1.58;;;19.40;99.90;;;;;;5014601;28;20026;-66
2023/09/21 11:12:40;;;;;;;2.25;1.30;;;19.40;99.90;;;;;;5014286;28;20102;-68
2023/09/21 11:15:12;;;;;;;2.63;1.33;;;19.40;99.90;;;;;;5009645;28;20026;-66
2023/09/21 11:17:42;;;;;;;;;;;19.40;99.90;;;;;;5010307;28;20068;-66
2023/09/21 11:20:12;;;;;;;2.67;0.80;;;19.30;99.90;;;;;;5004981;28;19912;-66
2023/09/21 11:22:39;;;;;;;1.85;0.73;;;19.30;99.90;;;;;;5008083;28;20018;-66
2023/09/21 11:25:06;;;;;;;2.85;1.13;;;19.20;99.90;;;;;;5007262;28;20022;-78
2023/09/21 11:27:32;;;;;;;2.00;1.02;;;19.40;99.90;;;;;;5010782;28;20521;-65
2023/09/21 11:29:58;;;;;;;2.35;1.33;;;19.30;99.90;;;;;;5008952;28;20057;-66
2023/09/21 11:32:24;;;;;;;3.00;1.42;;;19.30;99.90;;;;;;5005303;28;20034;-65
2023/09/21 11:34:58;;;;;;;2.35;1.48;;;19.40;99.90;;;;;;5000671;28;20030;-66
2023/09/21 11:37:26;;;;;;;4.65;1.75;;;19.30;99.90;;;;;;5020506;28;20112;-67
2023/09/21 11:39:52;;;;;;;3.25;1.10;;;19.40;99.90;;;;;;4991630;28;20178;-66
2023/09/21 11:42:19;;;;;;;3.22;1.05;;;19.40;99.90;;;;;;4992616;28;20026;-66
2023/09/21 11:44:49;;;;;;;2.72;1.42;;;19.40;99.90;;;;;;5005556;28;20036;-65
2023/09/21 11:47:15;;;;;;;2.92;1.23;;;19.50;99.90;;;;;;5013156;28;20034;-66
2023/09/21 11:49:43;;;;;;;2.70;1.33;;;19.50;99.90;;;;;;5012925;28;20055;-66
2023/09/21 11:52:11;;;;;;;1.70;1.05;;;19.60;99.90;;;;;;5012448;28;20021;-66
2023/09/21 11:54:39;;;;;;;3.17;1.17;;;19.60;99.90;;;;;;5002756;28;20026;-65
2023/09/21 11:57:09;;;;;;;4.40;1.38;;;19.60;99.90;;;;;;4993069;28;20575;-66
2023/09/21 11:59:39;;;;;;;3.47;1.40;;;19.70;99.90;;;;;;4992876;28;20018;-65
2023/09/21 12:02:09;;;;;;;2.70;1.70;;;19.70;99.90;;;;;;4993394;28;20098;-66
2023/09/21 12:04:35;;;;;;;6.13;1.77;;;19.80;99.90;;;;;;4998218;28;20026;-66
2023/09/21 12:07:01;;;;;;;3.13;1.42;;;19.80;99.90;;;;;;5001529;28;20038;-66
2023/09/21 12:09:28;;;;;;;3.30;1.13;;;19.90;99.90;;;;;;5006330;28;20081;-74
2023/09/21 12:11:54;;;;;;;3.47;1.35;;;19.90;99.90;;;;;;5003396;28;20096;-67
2023/09/21 12:14:21;;;;;;;2.60;1.08;;;19.90;99.90;;;;;;4995958;28;20386;-71
2023/09/21 12:16:50;;;;;;;2.45;1.20;;;19.90;99.90;;;;;;5001818;28;20026;-68
2023/09/21 12:19:18;;;;;;;3.58;1.20;;;19.90;99.90;;;;;;4998598;28;20019;-67
2023/09/21 12:21:45;;;;;;;3.53;1.40;;;19.90;99.90;;;;;;4993245;28;20471;-68
2023/09/21 12:24:10;;;;;;;2.03;0.90;;;20.00;99.90;;;;;;5003337;28;20018;-67
2023/09/21 12:26:36;;;;;;;2.33;0.93;;;20.00;99.90;;;;;;5002565;28;20030;-78
2023/09/21 12:29:02;;;;;;;2.47;1.25;;;20.00;99.90;;;;;;4991973;28;20046;-74
2023/09/21 12:31:28;;;;;;;3.13;1.02;;;19.90;99.90;;;;;;4996581;28;20026;-67
2023/09/21 12:33:55;;;;;;;4.43;1.83;;;19.90;99.90;;;;;;5003558;28;20026;-67
2023/09/21 12:36:23;;;;;;;4.00;1.20;;;19.90;99.90;;;;;;4994065;28;20062;-67
2023/09/21 12:38:52;;;;;;;3.42;1.50;;;19.90;99.90;;;;;;4997511;28;20061;-66
2023/09/21 12:41:18;;;;;;;3.15;1.80;;;19.90;99.90;;;;;;5001074;28;20038;-68
2023/09/21 12:43:44;;;;;;;2.55;1.50;;;20.00;99.90;;;;;;4998769;28;20391;-68
2023/09/21 12:46:09;;;;;;;1.50;0.88;;;20.00;99.90;;;;;;5008382;28;20491;-68
2023/09/21 12:48:38;;;;;;;3.42;1.20;;;20.00;99.90;;;;;;5002828;28;20121;-68
2023/09/21 12:51:05;;;;;;;4.30;1.73;;;20.00;99.90;;;;;;4998739;28;20026;-67
2023/09/21 12:53:30;;;;;;;2.35;2.13;;;19.90;99.90;;;;;;4995440;28;20042;-69
2023/09/21 12:55:57;;;;;;;2.95;1.98;;;19.90;99.90;;;;;;5001280;28;20026;-67